sensor_id;sensor_type;location;lat;lon;timestamp;P1;durP1;ratioP1;P2;durP2;ratioP2
14688;SDS011;7432;48.728;9.154;2023-05-10T00:00:24;2.80;;;2.70;;
14688;SDS011;7432;48.728;9.154;2023-05-10T00:02:51;2.93;;;2.80;;
14688;SDS011;7432;48.728;9.154;2023-05-10T00:05:17;2.70;;;2.60;;
14688;SDS011;7432;48.728;9.154;2023-05-10T00:07:44;2.80;;;2.70;;
14688;SDS011;7432;48.728;9.154;2023-05-10T00:10:10;3.07;;;2.87;;
14688;SDS011;7432;48.728;9.154;2023-05-10T00:12:38;3.13;;;2.97;;
14688;SDS011;7432;48.728;9.154;2023-05-10T00:15:05;3.00;;;2.90;;
14688;SDS011;7432;48.728;9.154;2023-05-10T00:17:32;3.20;;;2.80;;
14688;SDS011;7432;48.728;9.154;2023-05-10T00:19:59;2.67;;;2.57;;
14688;SDS011;7432;48.728;9.154;2023-05-10T00:22:25;2.80;;;2.70;;
14688;SDS011;7432;48.728;9.154;2023-05-10T00:24:51;2.70;;;2.60;;
14688;SDS011;7432;48.728;9.154;2023-05-10T00:27:18;2.90;;;2.53;;
14688;SDS011;7432;48.728;9.154;2023-05-10T00:29:45;4.60;;;2.70;;
14688;SDS011;7432;48.728;9.154;2023-05-10T00:32:12;3.00;;;2.80;;
14688;SDS011;7432;48.728;9.154;2023-05-10T00:34:38;2.80;;;2.60;;
14688;SDS011;7432;48.728;9.154;2023-05-10T00:37:05;2.90;;;2.70;;
14688;SDS011;7432;48.728;9.154;2023-05-10T00:39:31;2.93;;;2.70;;
14688;SDS011;7432;48.728;9.154;2023-05-10T00:41:58;3.00;;;2.90;;
14688;SDS011;7432;48.728;9.154;2023-05-10T00:44:25;3.20;;;2.90;;
14688;SDS011;7432;48.728;9.154;2023-05-10T00:46:52;3.10;;;3.00;;
14688;SDS011;7432;48.728;9.154;2023-05-10T00:49:19;2.80;;;2.70;;
14688;SDS011;7432;48.728;9.154;2023-05-10T00:51:46;3.07;;;2.70;;
14688;SDS011;7432;48.728;9.154;2023-05-10T00:54:14;4.50;;;2.80;;
14688;SDS011;7432;48.728;9.154;2023-05-10T00:56:41;2.50;;;2.40;;
14688;SDS011;7432;48.728;9.154;2023-05-10T00:59:08;2.77;;;2.60;;
14688;SDS011;7432;48.728;9.154;2023-05-10T01:01:35;2.60;;;2.50;;
14688;SDS011;7432;48.728;9.154;2023-05-10T01:04:03;2.80;;;2.70;;
14688;SDS011;7432;48.728;9.154;2023-05-10T01:06:30;3.23;;;3.03;;
14688;SDS011;7432;48.728;9.154;2023-05-10T01:08:57;2.97;;;2.87;;
14688;SDS011;7432;48.728;9.154;2023-05-10T01:11:23;2.83;;;2.73;;
14688;SDS011;7432;48.728;9.154;2023-05-10T01:13:51;2.70;;;2.60;;
14688;SDS011;7432;48.728;9.154;2023-05-10T01:16:21;2.83;;;2.73;;
14688;SDS011;7432;48.728;9.154;2023-05-10T01:18:48;3.00;;;2.80;;
14688;SDS011;7432;48.728;9.154;2023-05-10T01:21:19;2.90;;;2.80;;
14688;SDS011;7432;48.728;9.154;2023-05-10T01:24:03;3.10;;;2.90;;
14688;SDS011;7432;48.728;9.154;2023-05-10T01:27:03;2.90;;;2.80;;
14688;SDS011;7432;48.728;9.154;2023-05-10T01:32:53;3.30;;;3.10;;
14688;SDS011;7432;48.728;9.154;2023-05-10T01:35:26;3.00;;;2.90;;
14688;SDS011;7432;48.728;9.154;2023-05-10T01:38:03;2.93;;;2.83;;
14688;SDS011;7432;48.728;9.154;2023-05-10T01:40:35;2.67;;;2.57;;
14688;SDS011;7432;48.728;9.154;2023-05-10T01:43:07;2.83;;;2.73;;
14688;SDS011;7432;48.728;9.154;2023-05-10T01:45:38;3.03;;;2.83;;
14688;SDS011;7432;48.728;9.154;2023-05-10T01:48:12;2.90;;;2.80;;
14688;SDS011;7432;48.728;9.154;2023-05-10T01:50:41;2.83;;;2.73;;
14688;SDS011;7432;48.728;9.154;2023-05-10T01:53:09;2.60;;;2.50;;
14688;SDS011;7432;48.728;9.154;2023-05-10T01:55:39;2.90;;;2.80;;
14688;SDS011;7432;48.728;9.154;2023-05-10T01:58:13;2.50;;;2.40;;
14688;SDS011;7432;48.728;9.154;2023-05-10T02:00:43;2.80;;;2.70;;
14688;SDS011;7432;48.728;9.154;2023-05-10T02:03:13;2.93;;;2.73;;
14688;SDS011;7432;48.728;9.154;2023-05-10T02:05:43;2.67;;;2.50;;
14688;SDS011;7432;48.728;9.154;2023-05-10T02:08:11;2.87;;;2.77;;
14688;SDS011;7432;48.728;9.154;2023-05-10T02:10:40;3.10;;;3.00;;
14688;SDS011;7432;48.728;9.154;2023-05-10T02:13:08;2.70;;;2.60;;
14688;SDS011;7432;48.728;9.154;2023-05-10T02:15:37;2.77;;;2.63;;
14688;SDS011;7432;48.728;9.154;2023-05-10T02:18:05;2.70;;;2.50;;
14688;SDS011;7432;48.728;9.154;2023-05-10T02:20:34;3.03;;;2.60;;
14688;SDS011;7432;48.728;9.154;2023-05-10T02:23:01;2.77;;;2.47;;
14688;SDS011;7432;48.728;9.154;2023-05-10T02:25:29;2.40;;;2.30;;
14688;SDS011;7432;48.728;9.154;2023-05-10T02:27:57;2.80;;;2.70;;
14688;SDS011;7432;48.728;9.154;2023-05-10T02:30:27;2.70;;;2.60;;
14688;SDS011;7432;48.728;9.154;2023-05-10T02:32:55;2.67;;;2.57;;
14688;SDS011;7432;48.728;9.154;2023-05-10T02:35:23;2.60;;;2.50;;
14688;SDS011;7432;48.728;9.154;2023-05-10T02:37:53;3.13;;;2.93;;
14688;SDS011;7432;48.728;9.154;2023-05-10T02:40:20;2.90;;;2.70;;
14688;SDS011;7432;48.728;9.154;2023-05-10T02:42:48;2.60;;;2.50;;
14688;SDS011;7432;48.728;9.154;2023-05-10T02:45:19;3.00;;;2.80;;
14688;SDS011;7432;48.728;9.154;2023-05-10T02:47:49;2.80;;;2.70;;
14688;SDS011;7432;48.728;9.154;2023-05-10T02:50:15;2.90;;;2.70;;
14688;SDS011;7432;48.728;9.154;2023-05-10T02:52:42;2.73;;;2.60;;
14688;SDS011;7432;48.728;9.154;2023-05-10T02:55:14;2.90;;;2.80;;
14688;SDS011;7432;48.728;9.154;2023-05-10T02:57:43;2.73;;;2.63;;
14688;SDS011;7432;48.728;9.154;2023-05-10T03:00:14;3.00;;;2.80;;
14688;SDS011;7432;48.728;9.154;2023-05-10T03:02:41;3.20;;;3.10;;
14688;SDS011;7432;48.728;9.154;2023-05-10T03:05:07;4.23;;;2.40;;
14688;SDS011;7432;48.728;9.154;2023-05-10T03:07:34;2.70;;;2.60;;
14688;SDS011;7432;48.728;9.154;2023-05-10T03:10:01;4.47;;;3.13;;
14688;SDS011;7432;48.728;9.154;2023-05-10T03:12:33;3.00;;;2.80;;
14688;SDS011;7432;48.728;9.154;2023-05-10T03:15:13;3.13;;;2.97;;
14688;SDS011;7432;48.728;9.154;2023-05-10T03:17:46;3.10;;;2.90;;
14688;SDS011;7432;48.728;9.154;2023-05-10T03:20:20;2.93;;;2.77;;
14688;SDS011;7432;48.728;9.154;2023-05-10T03:22:50;2.97;;;2.87;;
14688;SDS011;7432;48.728;9.154;2023-05-10T03:25:19;3.03;;;2.83;;
14688;SDS011;7432;48.728;9.154;2023-05-10T03:27:48;3.43;;;3.13;;
14688;SDS011;7432;48.728;9.154;2023-05-10T03:30:15;3.50;;;3.30;;
14688;SDS011;7432;48.728;9.154;2023-05-10T03:32:42;4.33;;;3.23;;
14688;SDS011;7432;48.728;9.154;2023-05-10T03:35:09;3.07;;;2.97;;
14688;SDS011;7432;48.728;9.154;2023-05-10T03:37:35;3.50;;;3.27;;
14688;SDS011;7432;48.728;9.154;2023-05-10T03:40:02;3.30;;;3.10;;
14688;SDS011;7432;48.728;9.154;2023-05-10T03:42:28;3.60;;;3.40;;
14688;SDS011;7432;48.728;9.154;2023-05-10T03:44:56;3.30;;;3.10;;
14688;SDS011;7432;48.728;9.154;2023-05-10T03:47:23;3.73;;;3.47;;
14688;SDS011;7432;48.728;9.154;2023-05-10T03:49:49;3.50;;;3.30;;
14688;SDS011;7432;48.728;9.154;2023-05-10T03:52:16;2.73;;;2.63;;
14688;SDS011;7432;48.728;9.154;2023-05-10T03:54:43;3.30;;;3.10;;
14688;SDS011;7432;48.728;9.154;2023-05-10T03:57:09;3.00;;;2.80;;
14688;SDS011;7432;48.728;9.154;2023-05-10T03:59:35;3.50;;;3.30;;
14688;SDS011;7432;48.728;9.154;2023-05-10T04:02:03;3.30;;;3.20;;
14688;SDS011;7432;48.728;9.154;2023-05-10T04:04:30;3.70;;;3.40;;
14688;SDS011;7432;48.728;9.154;2023-05-10T04:06:56;3.37;;;3.17;;
14688;SDS011;7432;48.728;9.154;2023-05-10T04:09:23;3.50;;;3.20;;
14688;SDS011;7432;48.728;9.154;2023-05-10T04:11:49;3.30;;;3.07;;
14688;SDS011;7432;48.728;9.154;2023-05-10T04:14:16;3.70;;;3.50;;
14688;SDS011;7432;48.728;9.154;2023-05-10T04:16:42;3.57;;;3.37;;
14688;SDS011;7432;48.728;9.154;2023-05-10T04:19:10;4.20;;;3.93;;
14688;SDS011;7432;48.728;9.154;2023-05-10T04:21:36;3.53;;;3.33;;
14688;SDS011;7432;48.728;9.154;2023-05-10T04:24:03;3.60;;;3.40;;
14688;SDS011;7432;48.728;9.154;2023-05-10T04:26:29;3.87;;;3.57;;
14688;SDS011;7432;48.728;9.154;2023-05-10T04:28:56;4.10;;;3.70;;
14688;SDS011;7432;48.728;9.154;2023-05-10T04:31:22;3.90;;;3.70;;
14688;SDS011;7432;48.728;9.154;2023-05-10T04:33:49;3.80;;;3.60;;
14688;SDS011;7432;48.728;9.154;2023-05-10T04:36:17;4.47;;;3.43;;
14688;SDS011;7432;48.728;9.154;2023-05-10T04:38:43;3.80;;;3.60;;
14688;SDS011;7432;48.728;9.154;2023-05-10T04:41:10;3.50;;;3.30;;
14688;SDS011;7432;48.728;9.154;2023-05-10T04:43:37;4.20;;;3.90;;
14688;SDS011;7432;48.728;9.154;2023-05-10T04:46:04;4.00;;;3.70;;
14688;SDS011;7432;48.728;9.154;2023-05-10T04:48:31;3.87;;;3.67;;
14688;SDS011;7432;48.728;9.154;2023-05-10T04:50:58;3.93;;;3.73;;
14688;SDS011;7432;48.728;9.154;2023-05-10T04:53:25;3.90;;;3.60;;
14688;SDS011;7432;48.728;9.154;2023-05-10T04:55:52;5.20;;;3.30;;
14688;SDS011;7432;48.728;9.154;2023-05-10T04:58:18;4.87;;;4.20;;
14688;SDS011;7432;48.728;9.154;2023-05-10T05:00:45;3.63;;;3.43;;
14688;SDS011;7432;48.728;9.154;2023-05-10T05:03:11;3.83;;;3.50;;
14688;SDS011;7432;48.728;9.154;2023-05-10T05:05:37;4.13;;;3.70;;
14688;SDS011;7432;48.728;9.154;2023-05-10T05:08:04;4.00;;;3.80;;
14688;SDS011;7432;48.728;9.154;2023-05-10T05:10:31;3.70;;;3.50;;
14688;SDS011;7432;48.728;9.154;2023-05-10T05:12:58;4.17;;;3.97;;
14688;SDS011;7432;48.728;9.154;2023-05-10T05:15:24;3.77;;;3.57;;
14688;SDS011;7432;48.728;9.154;2023-05-10T05:17:51;4.10;;;3.80;;
14688;SDS011;7432;48.728;9.154;2023-05-10T05:20:17;3.90;;;3.70;;
14688;SDS011;7432;48.728;9.154;2023-05-10T05:22:44;4.20;;;3.90;;
14688;SDS011;7432;48.728;9.154;2023-05-10T05:25:11;4.40;;;4.10;;
14688;SDS011;7432;48.728;9.154;2023-05-10T05:27:39;4.47;;;4.17;;
14688;SDS011;7432;48.728;9.154;2023-05-10T05:30:06;3.87;;;3.67;;
14688;SDS011;7432;48.728;9.154;2023-05-10T05:32:33;3.90;;;3.60;;
14688;SDS011;7432;48.728;9.154;2023-05-10T05:34:59;4.30;;;4.10;;
14688;SDS011;7432;48.728;9.154;2023-05-10T05:37:26;4.23;;;3.90;;
14688;SDS011;7432;48.728;9.154;2023-05-10T05:39:52;3.77;;;3.57;;
14688;SDS011;7432;48.728;9.154;2023-05-10T05:42:19;3.23;;;3.03;;
14688;SDS011;7432;48.728;9.154;2023-05-10T05:44:47;5.43;;;4.10;;
14688;SDS011;7432;48.728;9.154;2023-05-10T05:47:14;5.40;;;3.73;;
14688;SDS011;7432;48.728;9.154;2023-05-10T05:49:40;3.87;;;3.57;;
14688;SDS011;7432;48.728;9.154;2023-05-10T05:52:06;3.80;;;3.60;;
14688;SDS011;7432;48.728;9.154;2023-05-10T05:54:33;3.63;;;3.43;;
14688;SDS011;7432;48.728;9.154;2023-05-10T05:57:00;3.50;;;3.30;;
14688;SDS011;7432;48.728;9.154;2023-05-10T05:59:27;3.20;;;2.90;;
14688;SDS011;7432;48.728;9.154;2023-05-10T06:01:55;3.93;;;3.63;;
14688;SDS011;7432;48.728;9.154;2023-05-10T06:04:21;3.90;;;3.60;;
14688;SDS011;7432;48.728;9.154;2023-05-10T06:06:47;4.00;;;3.80;;
14688;SDS011;7432;48.728;9.154;2023-05-10T06:09:14;3.67;;;3.47;;
14688;SDS011;7432;48.728;9.154;2023-05-10T06:11:41;3.77;;;3.47;;
14688;SDS011;7432;48.728;9.154;2023-05-10T06:14:07;3.70;;;3.50;;
14688;SDS011;7432;48.728;9.154;2023-05-10T06:16:34;3.87;;;3.67;;
14688;SDS011;7432;48.728;9.154;2023-05-10T06:19:02;3.80;;;3.57;;
14688;SDS011;7432;48.728;9.154;2023-05-10T06:21:28;4.23;;;4.03;;
14688;SDS011;7432;48.728;9.154;2023-05-10T06:23:55;4.20;;;3.90;;
14688;SDS011;7432;48.728;9.154;2023-05-10T06:26:21;3.70;;;3.40;;
14688;SDS011;7432;48.728;9.154;2023-05-10T06:28:48;4.17;;;3.97;;
14688;SDS011;7432;48.728;9.154;2023-05-10T06:31:14;4.60;;;4.30;;
14688;SDS011;7432;48.728;9.154;2023-05-10T06:33:41;4.27;;;3.90;;
14688;SDS011;7432;48.728;9.154;2023-05-10T06:36:08;4.43;;;4.23;;
14688;SDS011;7432;48.728;9.154;2023-05-10T06:38:35;3.70;;;3.50;;
14688;SDS011;7432;48.728;9.154;2023-05-10T06:41:01;4.03;;;3.70;;
14688;SDS011;7432;48.728;9.154;2023-05-10T06:43:28;4.33;;;4.10;;
14688;SDS011;7432;48.728;9.154;2023-05-10T06:45:54;4.57;;;4.17;;
14688;SDS011;7432;48.728;9.154;2023-05-10T06:48:20;3.50;;;3.20;;
14688;SDS011;7432;48.728;9.154;2023-05-10T06:50:47;4.30;;;4.00;;
14688;SDS011;7432;48.728;9.154;2023-05-10T06:53:14;6.30;;;4.30;;
14688;SDS011;7432;48.728;9.154;2023-05-10T06:55:41;4.27;;;3.97;;
14688;SDS011;7432;48.728;9.154;2023-05-10T06:58:07;4.33;;;4.03;;
14688;SDS011;7432;48.728;9.154;2023-05-10T07:00:34;4.53;;;4.33;;
14688;SDS011;7432;48.728;9.154;2023-05-10T07:03:04;4.43;;;4.13;;
14688;SDS011;7432;48.728;9.154;2023-05-10T07:05:30;4.30;;;4.00;;
14688;SDS011;7432;48.728;9.154;2023-05-10T07:07:56;3.90;;;3.70;;
14688;SDS011;7432;48.728;9.154;2023-05-10T07:10:24;4.27;;;3.90;;
14688;SDS011;7432;48.728;9.154;2023-05-10T07:12:51;3.80;;;3.60;;
14688;SDS011;7432;48.728;9.154;2023-05-10T07:15:18;4.73;;;3.93;;
14688;SDS011;7432;48.728;9.154;2023-05-10T07:17:44;3.30;;;3.10;;
14688;SDS011;7432;48.728;9.154;2023-05-10T07:20:11;4.10;;;3.70;;
14688;SDS011;7432;48.728;9.154;2023-05-10T07:22:38;4.00;;;3.70;;
14688;SDS011;7432;48.728;9.154;2023-05-10T07:25:05;4.17;;;3.70;;
14688;SDS011;7432;48.728;9.154;2023-05-10T07:27:33;4.37;;;4.17;;
14688;SDS011;7432;48.728;9.154;2023-05-10T07:29:59;4.47;;;4.07;;
14688;SDS011;7432;48.728;9.154;2023-05-10T07:32:26;4.63;;;3.43;;
14688;SDS011;7432;48.728;9.154;2023-05-10T07:34:53;4.80;;;4.50;;
14688;SDS011;7432;48.728;9.154;2023-05-10T07:37:19;4.50;;;4.30;;
14688;SDS011;7432;48.728;9.154;2023-05-10T07:39:45;4.67;;;4.37;;
14688;SDS011;7432;48.728;9.154;2023-05-10T07:42:12;4.90;;;4.60;;
14688;SDS011;7432;48.728;9.154;2023-05-10T07:44:40;4.50;;;4.30;;
14688;SDS011;7432;48.728;9.154;2023-05-10T07:47:06;5.40;;;4.90;;
14688;SDS011;7432;48.728;9.154;2023-05-10T07:49:33;4.97;;;4.67;;
14688;SDS011;7432;48.728;9.154;2023-05-10T07:52:00;5.10;;;4.70;;
14688;SDS011;7432;48.728;9.154;2023-05-10T07:54:28;5.07;;;4.57;;
14688;SDS011;7432;48.728;9.154;2023-05-10T07:56:55;5.20;;;4.80;;
14688;SDS011;7432;48.728;9.154;2023-05-10T07:59:22;5.30;;;5.00;;
14688;SDS011;7432;48.728;9.154;2023-05-10T08:01:49;5.17;;;4.87;;
14688;SDS011;7432;48.728;9.154;2023-05-10T08:04:16;5.00;;;4.70;;
14688;SDS011;7432;48.728;9.154;2023-05-10T08:06:42;4.50;;;4.20;;
14688;SDS011;7432;48.728;9.154;2023-05-10T08:09:08;5.00;;;4.70;;
14688;SDS011;7432;48.728;9.154;2023-05-10T08:11:35;5.07;;;4.77;;
14688;SDS011;7432;48.728;9.154;2023-05-10T08:14:02;5.00;;;4.70;;
14688;SDS011;7432;48.728;9.154;2023-05-10T08:16:28;5.10;;;4.80;;
14688;SDS011;7432;48.728;9.154;2023-05-10T08:18:56;4.67;;;4.37;;
14688;SDS011;7432;48.728;9.154;2023-05-10T08:21:22;5.00;;;4.73;;
14688;SDS011;7432;48.728;9.154;2023-05-10T08:23:49;5.50;;;5.00;;
14688;SDS011;7432;48.728;9.154;2023-05-10T08:26:15;5.27;;;4.87;;
14688;SDS011;7432;48.728;9.154;2023-05-10T08:28:41;5.13;;;4.60;;
14688;SDS011;7432;48.728;9.154;2023-05-10T08:31:08;4.73;;;4.47;;
14688;SDS011;7432;48.728;9.154;2023-05-10T08:33:34;5.20;;;4.90;;
14688;SDS011;7432;48.728;9.154;2023-05-10T08:36:02;6.10;;;5.13;;
14688;SDS011;7432;48.728;9.154;2023-05-10T08:38:28;5.00;;;4.70;;
14688;SDS011;7432;48.728;9.154;2023-05-10T08:40:55;4.97;;;4.73;;
14688;SDS011;7432;48.728;9.154;2023-05-10T08:43:23;5.10;;;4.90;;
14688;SDS011;7432;48.728;9.154;2023-05-10T08:45:53;5.07;;;4.77;;
14688;SDS011;7432;48.728;9.154;2023-05-10T08:48:20;5.27;;;4.77;;
14688;SDS011;7432;48.728;9.154;2023-05-10T08:50:49;6.00;;;5.60;;
14688;SDS011;7432;48.728;9.154;2023-05-10T08:53:21;5.17;;;4.87;;
14688;SDS011;7432;48.728;9.154;2023-05-10T08:55:51;4.43;;;4.13;;
14688;SDS011;7432;48.728;9.154;2023-05-10T08:58:19;5.60;;;5.10;;
14688;SDS011;7432;48.728;9.154;2023-05-10T09:00:45;5.67;;;5.27;;
14688;SDS011;7432;48.728;9.154;2023-05-10T09:03:14;5.30;;;5.00;;
14688;SDS011;7432;48.728;9.154;2023-05-10T09:05:41;5.30;;;5.00;;
14688;SDS011;7432;48.728;9.154;2023-05-10T09:08:07;5.03;;;4.73;;
14688;SDS011;7432;48.728;9.154;2023-05-10T09:10:36;5.50;;;5.13;;
14688;SDS011;7432;48.728;9.154;2023-05-10T09:13:04;5.20;;;4.90;;
14688;SDS011;7432;48.728;9.154;2023-05-10T09:15:31;4.77;;;4.57;;
14688;SDS011;7432;48.728;9.154;2023-05-10T09:17:57;5.47;;;5.17;;
14688;SDS011;7432;48.728;9.154;2023-05-10T09:20:27;5.47;;;5.10;;
14688;SDS011;7432;48.728;9.154;2023-05-10T09:22:53;4.90;;;4.60;;
14688;SDS011;7432;48.728;9.154;2023-05-10T09:25:20;5.30;;;5.00;;
14688;SDS011;7432;48.728;9.154;2023-05-10T09:27:48;4.23;;;3.93;;
14688;SDS011;7432;48.728;9.154;2023-05-10T09:30:15;5.17;;;4.87;;
14688;SDS011;7432;48.728;9.154;2023-05-10T09:32:43;5.50;;;5.10;;
14688;SDS011;7432;48.728;9.154;2023-05-10T09:35:11;5.20;;;4.83;;
14688;SDS011;7432;48.728;9.154;2023-05-10T09:37:38;5.60;;;5.20;;
14688;SDS011;7432;48.728;9.154;2023-05-10T09:40:07;4.83;;;4.60;;
14688;SDS011;7432;48.728;9.154;2023-05-10T09:42:37;5.67;;;5.33;;
14688;SDS011;7432;48.728;9.154;2023-05-10T09:45:06;4.90;;;4.70;;
14688;SDS011;7432;48.728;9.154;2023-05-10T09:47:33;5.30;;;5.00;;
14688;SDS011;7432;48.728;9.154;2023-05-10T09:50:01;5.07;;;4.67;;
14688;SDS011;7432;48.728;9.154;2023-05-10T09:52:29;5.13;;;4.90;;
14688;SDS011;7432;48.728;9.154;2023-05-10T09:54:57;5.47;;;5.17;;
14688;SDS011;7432;48.728;9.154;2023-05-10T09:57:23;5.03;;;4.73;;
14688;SDS011;7432;48.728;9.154;2023-05-10T09:59:50;5.73;;;5.43;;
14688;SDS011;7432;48.728;9.154;2023-05-10T10:02:20;5.40;;;5.10;;
14688;SDS011;7432;48.728;9.154;2023-05-10T10:04:48;5.70;;;5.40;;
14688;SDS011;7432;48.728;9.154;2023-05-10T10:07:17;6.30;;;5.73;;
14688;SDS011;7432;48.728;9.154;2023-05-10T10:09:48;6.00;;;5.60;;
14688;SDS011;7432;48.728;9.154;2023-05-10T10:12:15;5.70;;;5.40;;
14688;SDS011;7432;48.728;9.154;2023-05-10T10:14:42;5.40;;;5.10;;
14688;SDS011;7432;48.728;9.154;2023-05-10T10:17:09;5.17;;;4.87;;
14688;SDS011;7432;48.728;9.154;2023-05-10T10:19:36;5.55;;;5.25;;
14688;SDS011;7432;48.728;9.154;2023-05-10T10:22:03;5.38;;;5.07;;
14688;SDS011;7432;48.728;9.154;2023-05-10T10:24:30;5.70;;;5.40;;
14688;SDS011;7432;48.728;9.154;2023-05-10T10:26:57;5.43;;;5.13;;
14688;SDS011;7432;48.728;9.154;2023-05-10T10:29:31;5.10;;;4.90;;
14688;SDS011;7432;48.728;9.154;2023-05-10T10:32:03;5.43;;;5.10;;
14688;SDS011;7432;48.728;9.154;2023-05-10T10:34:39;5.43;;;5.13;;
14688;SDS011;7432;48.728;9.154;2023-05-10T10:37:06;5.30;;;5.00;;
14688;SDS011;7432;48.728;9.154;2023-05-10T10:39:32;5.50;;;5.20;;
14688;SDS011;7432;48.728;9.154;2023-05-10T10:42:01;5.57;;;5.18;;
14688;SDS011;7432;48.728;9.154;2023-05-10T10:44:36;5.68;;;5.38;;
14688;SDS011;7432;48.728;9.154;2023-05-10T10:47:05;5.85;;;5.55;;
14688;SDS011;7432;48.728;9.154;2023-05-10T10:49:43;5.97;;;5.68;;
14688;SDS011;7432;48.728;9.154;2023-05-10T10:52:21;6.15;;;5.85;;
14688;SDS011;7432;48.728;9.154;2023-05-10T10:54:56;6.20;;;5.80;;
14688;SDS011;7432;48.728;9.154;2023-05-10T10:57:25;5.55;;;5.25;;
14688;SDS011;7432;48.728;9.154;2023-05-10T10:59:53;5.88;;;5.57;;
14688;SDS011;7432;48.728;9.154;2023-05-10T11:02:47;5.73;;;5.43;;
14688;SDS011;7432;48.728;9.154;2023-05-10T11:05:24;5.53;;;5.17;;
14688;SDS011;7432;48.728;9.154;2023-05-10T11:07:59;6.00;;;5.70;;
14688;SDS011;7432;48.728;9.154;2023-05-10T11:10:26;5.30;;;5.10;;
14688;SDS011;7432;48.728;9.154;2023-05-10T11:12:54;5.50;;;5.20;;
14688;SDS011;7432;48.728;9.154;2023-05-10T11:15:31;5.87;;;5.57;;
14688;SDS011;7432;48.728;9.154;2023-05-10T11:17:58;6.27;;;5.83;;
14688;SDS011;7432;48.728;9.154;2023-05-10T11:20:28;6.10;;;5.60;;
14688;SDS011;7432;48.728;9.154;2023-05-10T11:22:59;6.20;;;5.80;;
14688;SDS011;7432;48.728;9.154;2023-05-10T11:25:40;6.23;;;5.93;;
14688;SDS011;7432;48.728;9.154;2023-05-10T11:28:08;6.30;;;6.00;;
14688;SDS011;7432;48.728;9.154;2023-05-10T11:30:35;6.80;;;6.40;;
14688;SDS011;7432;48.728;9.154;2023-05-10T11:33:02;6.07;;;5.77;;
14688;SDS011;7432;48.728;9.154;2023-05-10T11:35:30;6.50;;;5.83;;
14688;SDS011;7432;48.728;9.154;2023-05-10T11:37:56;6.77;;;6.37;;
14688;SDS011;7432;48.728;9.154;2023-05-10T11:40:22;6.50;;;6.20;;
14688;SDS011;7432;48.728;9.154;2023-05-10T11:42:49;6.13;;;5.63;;
14688;SDS011;7432;48.728;9.154;2023-05-10T11:45:16;5.90;;;5.30;;
14688;SDS011;7432;48.728;9.154;2023-05-10T11:47:42;6.67;;;6.00;;
14688;SDS011;7432;48.728;9.154;2023-05-10T11:50:09;5.90;;;5.50;;
14688;SDS011;7432;48.728;9.154;2023-05-10T11:52:38;5.80;;;5.40;;
14688;SDS011;7432;48.728;9.154;2023-05-10T11:55:05;5.27;;;4.93;;
14688;SDS011;7432;48.728;9.154;2023-05-10T11:57:32;5.77;;;5.30;;
14688;SDS011;7432;48.728;9.154;2023-05-10T11:59:58;6.10;;;5.70;;
14688;SDS011;7432;48.728;9.154;2023-05-10T12:02:25;5.37;;;5.07;;
14688;SDS011;7432;48.728;9.154;2023-05-10T12:04:51;7.63;;;5.30;;
14688;SDS011;7432;48.728;9.154;2023-05-10T12:07:18;5.77;;;5.47;;
14688;SDS011;7432;48.728;9.154;2023-05-10T12:10:01;5.67;;;5.37;;
14688;SDS011;7432;48.728;9.154;2023-05-10T12:12:34;6.50;;;6.17;;
14688;SDS011;7432;48.728;9.154;2023-05-10T12:15:01;6.33;;;5.93;;
14688;SDS011;7432;48.728;9.154;2023-05-10T12:17:29;6.23;;;5.83;;
14688;SDS011;7432;48.728;9.154;2023-05-10T12:19:58;6.47;;;5.90;;
14688;SDS011;7432;48.728;9.154;2023-05-10T12:22:25;6.30;;;5.90;;
14688;SDS011;7432;48.728;9.154;2023-05-10T12:24:53;6.30;;;5.80;;
14688;SDS011;7432;48.728;9.154;2023-05-10T12:27:19;6.40;;;6.00;;
14688;SDS011;7432;48.728;9.154;2023-05-10T12:29:46;6.17;;;5.70;;
14688;SDS011;7432;48.728;9.154;2023-05-10T12:32:14;6.63;;;6.23;;
14688;SDS011;7432;48.728;9.154;2023-05-10T12:34:40;6.40;;;5.90;;
14688;SDS011;7432;48.728;9.154;2023-05-10T12:37:06;6.23;;;5.70;;
14688;SDS011;7432;48.728;9.154;2023-05-10T12:39:39;6.40;;;6.10;;
14688;SDS011;7432;48.728;9.154;2023-05-10T12:42:07;6.60;;;6.13;;
14688;SDS011;7432;48.728;9.154;2023-05-10T12:44:34;6.60;;;6.10;;
14688;SDS011;7432;48.728;9.154;2023-05-10T12:47:00;6.07;;;5.77;;
14688;SDS011;7432;48.728;9.154;2023-05-10T12:49:26;6.73;;;6.20;;
14688;SDS011;7432;48.728;9.154;2023-05-10T12:51:53;6.20;;;5.80;;
14688;SDS011;7432;48.728;9.154;2023-05-10T12:54:19;6.60;;;6.10;;
14688;SDS011;7432;48.728;9.154;2023-05-10T12:56:45;6.00;;;5.70;;
14688;SDS011;7432;48.728;9.154;2023-05-10T12:59:13;5.97;;;5.57;;
14688;SDS011;7432;48.728;9.154;2023-05-10T13:01:39;6.57;;;6.07;;
14688;SDS011;7432;48.728;9.154;2023-05-10T13:04:06;5.83;;;5.53;;
14688;SDS011;7432;48.728;9.154;2023-05-10T13:06:32;5.70;;;5.40;;
14688;SDS011;7432;48.728;9.154;2023-05-10T13:08:58;5.67;;;5.37;;
14688;SDS011;7432;48.728;9.154;2023-05-10T13:11:25;5.53;;;5.13;;
14688;SDS011;7432;48.728;9.154;2023-05-10T13:13:51;6.50;;;6.00;;
14688;SDS011;7432;48.728;9.154;2023-05-10T13:16:19;6.13;;;5.73;;
14688;SDS011;7432;48.728;9.154;2023-05-10T13:18:45;6.10;;;5.70;;
14688;SDS011;7432;48.728;9.154;2023-05-10T13:21:12;5.90;;;5.60;;
14688;SDS011;7432;48.728;9.154;2023-05-10T13:23:38;6.10;;;5.63;;
14688;SDS011;7432;48.728;9.154;2023-05-10T13:26:04;6.17;;;5.67;;
14688;SDS011;7432;48.728;9.154;2023-05-10T13:28:31;6.00;;;5.57;;
14688;SDS011;7432;48.728;9.154;2023-05-10T13:30:57;5.60;;;5.10;;
14688;SDS011;7432;48.728;9.154;2023-05-10T13:33:26;6.37;;;5.87;;
14688;SDS011;7432;48.728;9.154;2023-05-10T13:35:52;6.17;;;5.80;;
14688;SDS011;7432;48.728;9.154;2023-05-10T13:38:18;5.63;;;5.32;;
14688;SDS011;7432;48.728;9.154;2023-05-10T13:40:45;6.33;;;5.87;;
14688;SDS011;7432;48.728;9.154;2023-05-10T13:43:11;5.93;;;5.53;;
14688;SDS011;7432;48.728;9.154;2023-05-10T13:45:37;6.70;;;6.30;;
14688;SDS011;7432;48.728;9.154;2023-05-10T13:48:04;6.27;;;5.87;;
14688;SDS011;7432;48.728;9.154;2023-05-10T13:50:32;6.80;;;6.30;;
14688;SDS011;7432;48.728;9.154;2023-05-10T13:52:58;6.78;;;5.90;;
14688;SDS011;7432;48.728;9.154;2023-05-10T13:55:25;6.23;;;5.83;;
14688;SDS011;7432;48.728;9.154;2023-05-10T13:57:51;6.20;;;5.80;;
14688;SDS011;7432;48.728;9.154;2023-05-10T14:00:18;5.93;;;5.55;;
14688;SDS011;7432;48.728;9.154;2023-05-10T14:02:44;6.30;;;5.67;;
14688;SDS011;7432;48.728;9.154;2023-05-10T14:05:11;6.38;;;5.97;;
14688;SDS011;7432;48.728;9.154;2023-05-10T14:07:38;5.80;;;5.50;;
14688;SDS011;7432;48.728;9.154;2023-05-10T14:10:05;6.20;;;5.80;;
14688;SDS011;7432;48.728;9.154;2023-05-10T14:12:32;6.40;;;5.90;;
14688;SDS011;7432;48.728;9.154;2023-05-10T14:14:58;5.97;;;5.57;;
14688;SDS011;7432;48.728;9.154;2023-05-10T14:17:25;5.97;;;5.43;;
14688;SDS011;7432;48.728;9.154;2023-05-10T14:19:52;6.20;;;5.90;;
14688;SDS011;7432;48.728;9.154;2023-05-10T14:22:18;5.40;;;5.00;;
14688;SDS011;7432;48.728;9.154;2023-05-10T14:24:46;5.87;;;5.57;;
14688;SDS011;7432;48.728;9.154;2023-05-10T14:27:13;5.90;;;5.50;;
14688;SDS011;7432;48.728;9.154;2023-05-10T14:29:40;5.95;;;5.55;;
14688;SDS011;7432;48.728;9.154;2023-05-10T14:32:06;6.70;;;6.30;;
14688;SDS011;7432;48.728;9.154;2023-05-10T14:34:33;6.13;;;5.73;;
14688;SDS011;7432;48.728;9.154;2023-05-10T14:36:59;8.15;;;6.10;;
14688;SDS011;7432;48.728;9.154;2023-05-10T14:39:26;5.97;;;5.60;;
14688;SDS011;7432;48.728;9.154;2023-05-10T14:41:55;5.80;;;5.50;;
14688;SDS011;7432;48.728;9.154;2023-05-10T14:44:22;6.60;;;6.10;;
14688;SDS011;7432;48.728;9.154;2023-05-10T14:46:48;6.27;;;5.87;;
14688;SDS011;7432;48.728;9.154;2023-05-10T14:49:15;6.33;;;5.93;;
14688;SDS011;7432;48.728;9.154;2023-05-10T14:51:41;6.33;;;5.93;;
14688;SDS011;7432;48.728;9.154;2023-05-10T14:54:07;6.17;;;5.87;;
14688;SDS011;7432;48.728;9.154;2023-05-10T14:56:34;6.03;;;5.63;;
14688;SDS011;7432;48.728;9.154;2023-05-10T14:59:03;6.37;;;5.97;;
14688;SDS011;7432;48.728;9.154;2023-05-10T15:01:30;6.50;;;6.10;;
14688;SDS011;7432;48.728;9.154;2023-05-10T15:03:57;6.43;;;6.00;;
14688;SDS011;7432;48.728;9.154;2023-05-10T15:06:29;5.70;;;5.40;;